San Ramon, CA (94583)

11:34 AM PDT on September 01, 2015 (GMT -0700)
Summerview Court | | Change Station
CLOSE
Current Station
Personal Weather Station
Location: San Ramon, CA
Elevation: 427 ft
Nearby Weather Stations

Elev 427 ft 37.76 °N, 121.95 °W | Updated 10 seconds ago

Clear
Clear
85.0 °F
Feels Like 85 °F
N
0.0
Wind Variable Wind from West
Gusts 4.5 mph

Today
High -- | Low -- °F
--% Chance of Precip.
Yesterday
High -- | Low -- °F
Precip. -- in
6:37 AM 7:37 PM
Waning Gibbous, 87% visible
Pressure 29.87 in
Visibility 10.0 miles
Clouds Clear
Heat Index 85 °F
Dew Point 59 °F
Humidity 41%
Rainfall 0.00 in
Snow Depth Not available.
UV 7 out of 12
Pollen 6.90 out of 12
Air Quality Not available.
Flu Activity Not available.
METAR KLVK 011753Z 30005KT 10SM CLR 26/13 A2988 RMK AO2 SLP113 T02560128 10256 20150 55002
Pressure 29.87 in
Visibility 10.0 miles
Clouds Clear
Heat Index 85 °F
Dew Point 59 °F
Humidity 41%
Rainfall 0.00 in
Snow Depth Not available.
UV 7 out of 12
Pollen 6.90 out of 12
Air Quality Not available.
Flu Activity Not available.
METAR KLVK 011753Z 30005KT 10SM CLR 26/13 A2988 RMK AO2 SLP113 T02560128 10256 20150 55002

10-Day Weather Forecast

×

Almanac

Astronomy

Sep. 01, 2015 Rise Set
Actual Time
Civil Twilight
Nautical Twilight
Astronomical Twilight
Moon
Length of Visible Light
Length of Day
Tomorrow will be .
, % of the Moon is Illuminated

Today's Extremes

State Highs State Lows

Community

WunderPhotos

Upload Photos

1,851,593 photos uploaded!

WunderBlogs® & News

Nearby

Air Quality

  Air Quality AQ Index Pollutant
Not available.

Snow Depth

Station Depth Elevation

Earthquake Activity

City Distance Mag. Time & Date
Minimum magnitude displayed is 2.5.

Coastal Water Temperatures

Place Temperature

Stations

Nearby Weather Stations

Station Location Temp. Windchill Dew Point Humidity Wind Precip. Elev Updated Type